createdAt,value
2018-07-31T00:01:14.338Z,21.50
2018-07-31T00:03:44.355Z,21.50
2018-07-31T00:08:48.579Z,21.50
2018-07-31T00:11:18.646Z,21.60
2018-07-31T00:13:48.551Z,21.80
2018-07-31T00:16:18.468Z,22.00
2018-07-31T00:18:48.394Z,22.00
2018-07-31T00:23:48.041Z,22.00
2018-07-31T00:26:17.972Z,22.00
2018-07-31T00:31:17.429Z,22.00
2018-07-31T00:33:47.356Z,21.90
2018-07-31T00:36:17.258Z,21.80
2018-07-31T00:38:47.228Z,21.70
2018-07-31T00:41:17.136Z,21.60
2018-07-31T00:43:47.135Z,21.50
2018-07-31T00:46:16.998Z,21.50
2018-07-31T00:48:46.910Z,21.50
2018-07-31T00:51:16.815Z,21.40
2018-07-31T00:53:46.733Z,21.30
2018-07-31T00:56:16.667Z,21.20
2018-07-31T00:58:46.618Z,21.20
2018-07-31T01:01:16.506Z,21.20
2018-07-31T01:03:46.419Z,21.20
2018-07-31T01:06:19.458Z,21.10
2018-07-31T01:08:49.482Z,21.10
2018-07-31T01:11:19.386Z,21.00
2018-07-31T01:13:49.315Z,21.00
2018-07-31T01:16:19.250Z,20.90
2018-07-31T01:18:49.199Z,21.00
2018-07-31T01:21:19.096Z,21.00
2018-07-31T01:23:49.091Z,21.10
2018-07-31T01:28:48.599Z,21.00
2018-07-31T01:31:18.502Z,21.10
2018-07-31T01:38:47.617Z,20.90
2018-07-31T01:41:17.538Z,20.90
2018-07-31T01:46:17.030Z,20.80
2018-07-31T01:48:46.959Z,20.70
2018-07-31T01:51:16.947Z,20.50
2018-07-31T01:53:46.874Z,20.50
2018-07-31T01:56:16.762Z,20.50
2018-07-31T01:58:46.696Z,20.40
2018-07-31T02:01:16.681Z,20.40
2018-07-31T02:03:46.611Z,20.40
2018-07-31T02:06:16.674Z,20.40
2018-07-31T02:08:46.602Z,20.30
2018-07-31T02:11:16.713Z,20.30
2018-07-31T02:13:46.651Z,20.20
2018-07-31T02:16:16.551Z,20.20
2018-07-31T02:21:16.133Z,19.90
2018-07-31T02:23:46.111Z,19.90
2018-07-31T02:28:45.830Z,19.70
2018-07-31T02:31:15.954Z,19.70
2018-07-31T02:33:45.923Z,19.70
2018-07-31T02:36:15.851Z,19.70
2018-07-31T02:38:45.887Z,19.60
2018-07-31T02:41:15.916Z,19.70
2018-07-31T02:43:45.829Z,19.70
2018-07-31T02:46:15.716Z,19.70
2018-07-31T02:48:45.653Z,19.70
2018-07-31T02:51:15.682Z,19.70
2018-07-31T02:53:45.634Z,19.70
2018-07-31T02:56:15.620Z,19.70
2018-07-31T02:58:45.539Z,19.70
2018-07-31T03:01:15.460Z,19.70
2018-07-31T03:06:15.036Z,19.60
2018-07-31T03:08:44.943Z,19.50
2018-07-31T03:11:14.982Z,19.50
2018-07-31T03:13:44.988Z,19.50
2018-07-31T03:16:15.015Z,19.40
2018-07-31T03:18:44.929Z,19.30
2018-07-31T03:21:14.997Z,19.20
2018-07-31T03:23:44.899Z,19.30
2018-07-31T03:26:14.931Z,19.30
2018-07-31T03:28:44.978Z,19.20
2018-07-31T03:31:14.975Z,19.20
2018-07-31T03:33:44.888Z,19.10
2018-07-31T03:36:15.114Z,19.10
2018-07-31T03:38:45.092Z,19.00
2018-07-31T03:41:15.076Z,19.00
2018-07-31T03:43:45.042Z,19.00
2018-07-31T03:46:15.091Z,18.90
2018-07-31T03:48:45.002Z,18.90
2018-07-31T03:51:15.166Z,18.80
2018-07-31T03:53:45.195Z,18.80
2018-07-31T03:56:15.181Z,18.80
2018-07-31T03:58:45.256Z,18.80
2018-07-31T04:01:15.254Z,18.80
2018-07-31T04:06:14.906Z,18.80
2018-07-31T04:08:44.873Z,18.80
2018-07-31T04:13:44.852Z,18.80
2018-07-31T04:16:14.843Z,18.80
2018-07-31T04:18:44.987Z,18.80
2018-07-31T04:21:14.955Z,18.80
2018-07-31T04:23:44.931Z,18.80
2018-07-31T04:26:14.862Z,18.80
2018-07-31T04:28:44.883Z,18.80
2018-07-31T04:31:14.838Z,18.80
2018-07-31T04:33:44.891Z,18.90
2018-07-31T04:36:15.051Z,19.00
2018-07-31T04:38:45.002Z,19.00
2018-07-31T04:41:15.036Z,19.10
2018-07-31T04:43:45.154Z,19.20
2018-07-31T04:46:15.094Z,19.20
2018-07-31T04:51:14.710Z,19.30
2018-07-31T04:53:44.742Z,19.30
2018-07-31T04:56:14.698Z,19.30
2018-07-31T04:58:44.947Z,19.30
2018-07-31T05:03:44.714Z,19.30
2018-07-31T05:06:14.793Z,19.30
2018-07-31T05:08:44.877Z,19.30
2018-07-31T05:11:14.931Z,19.30
2018-07-31T05:13:45.003Z,19.40
2018-07-31T05:16:15.059Z,19.40
2018-07-31T05:18:44.975Z,19.40
2018-07-31T05:23:44.726Z,19.50
2018-07-31T05:28:44.415Z,19.70
2018-07-31T05:31:14.586Z,19.80
2018-07-31T05:33:44.639Z,19.90
2018-07-31T05:38:44.507Z,20.10
2018-07-31T05:46:14.134Z,20.70
2018-07-31T05:48:44.333Z,20.80
2018-07-31T05:51:14.478Z,20.80
2018-07-31T05:53:44.555Z,20.90
2018-07-31T05:56:14.670Z,20.90
2018-07-31T05:58:44.703Z,20.90
2018-07-31T06:01:14.784Z,21.00
2018-07-31T06:03:44.801Z,21.10
2018-07-31T06:06:14.810Z,21.30
2018-07-31T06:08:45.210Z,21.30
2018-07-31T06:11:15.348Z,21.30
2018-07-31T06:13:45.163Z,21.50
2018-07-31T06:16:15.263Z,21.60
2018-07-31T06:18:45.227Z,21.70
2018-07-31T06:21:15.377Z,21.80
2018-07-31T06:23:45.338Z,21.90
2018-07-31T06:26:15.351Z,22.20
2018-07-31T06:28:45.283Z,22.40
2018-07-31T06:31:15.630Z,22.50
2018-07-31T06:33:45.530Z,22.70
2018-07-31T06:36:15.534Z,22.80
2018-07-31T06:38:45.579Z,22.90
2018-07-31T06:41:15.649Z,23.00
2018-07-31T06:43:45.590Z,23.10
2018-07-31T06:46:15.669Z,23.20
2018-07-31T06:48:45.562Z,23.30
2018-07-31T06:51:16.019Z,23.30
2018-07-31T06:53:45.947Z,23.40
2018-07-31T06:56:15.958Z,23.60
2018-07-31T06:58:46.006Z,23.80
2018-07-31T07:01:16.114Z,23.90
2018-07-31T07:06:15.942Z,24.30
2018-07-31T07:08:46.142Z,24.40
2018-07-31T07:11:16.170Z,24.80
2018-07-31T07:13:46.191Z,25.10
2018-07-31T07:16:16.283Z,25.90
2018-07-31T07:21:16.231Z,26.80
2018-07-31T07:23:46.416Z,27.40
2018-07-31T07:26:16.453Z,28.20
2018-07-31T07:28:46.475Z,28.50
2018-07-31T07:33:46.282Z,29.90
2018-07-31T07:38:45.907Z,30.40
2018-07-31T07:41:15.964Z,30.90
2018-07-31T07:43:46.044Z,30.90
2018-07-31T07:46:16.144Z,31.50
2018-07-31T07:48:46.224Z,31.70
2018-07-31T07:51:16.348Z,31.50
2018-07-31T07:53:46.355Z,31.40
2018-07-31T07:58:46.162Z,31.70
2018-07-31T08:01:16.278Z,32.10
2018-07-31T08:06:16.310Z,31.80
2018-07-31T08:08:46.390Z,31.70
2018-07-31T08:11:16.611Z,31.60
2018-07-31T08:13:46.666Z,31.10
2018-07-31T08:16:17.058Z,30.90
2018-07-31T08:18:47.213Z,30.40
2018-07-31T08:21:17.266Z,30.10
2018-07-31T08:23:47.262Z,29.90
2018-07-31T08:26:17.477Z,29.50
2018-07-31T08:28:47.668Z,29.40
2018-07-31T08:31:17.726Z,29.10
2018-07-31T08:33:47.980Z,29.10
2018-07-31T08:36:18.190Z,29.20
2018-07-31T08:38:49.439Z,29.20
2018-07-31T08:41:21.879Z,29.20
2018-07-31T08:43:55.900Z,29.30
2018-07-31T08:46:28.165Z,31.10
2018-07-31T08:49:04.077Z,29.50
2018-07-31T08:54:05.657Z,29.70
2018-07-31T08:56:37.637Z,29.90
2018-07-31T08:59:08.492Z,30.00
2018-07-31T09:01:40.091Z,30.20
2018-07-31T09:04:11.776Z,30.20
2018-07-31T09:06:43.242Z,30.20
2018-07-31T09:09:13.505Z,30.20
2018-07-31T09:11:43.557Z,30.30
2018-07-31T09:14:13.819Z,30.30
2018-07-31T09:16:44.386Z,30.40
2018-07-31T09:19:14.641Z,30.50
2018-07-31T09:21:44.947Z,30.60
2018-07-31T09:24:15.110Z,30.80
2018-07-31T09:29:15.031Z,30.90
2018-07-31T09:31:45.061Z,31.00
2018-07-31T09:34:15.212Z,31.10
2018-07-31T09:36:45.402Z,31.30
2018-07-31T09:39:15.482Z,31.40
2018-07-31T09:41:45.512Z,31.60
2018-07-31T09:44:15.526Z,31.80
2018-07-31T09:46:45.571Z,31.80
2018-07-31T09:49:15.643Z,31.80
2018-07-31T09:51:45.724Z,32.10
2018-07-31T09:54:15.791Z,32.10
2018-07-31T09:56:45.824Z,32.40
2018-07-31T09:59:15.978Z,32.30
2018-07-31T10:01:45.923Z,32.40
2018-07-31T10:04:15.990Z,32.60
2018-07-31T10:06:46.169Z,32.60
2018-07-31T10:11:45.953Z,32.90
2018-07-31T10:14:16.142Z,33.10
2018-07-31T10:16:46.159Z,33.10
2018-07-31T10:19:16.213Z,33.20
2018-07-31T10:21:46.339Z,33.20
2018-07-31T10:24:16.452Z,33.40
2018-07-31T10:26:46.532Z,33.40
2018-07-31T10:29:16.587Z,33.50
2018-07-31T10:31:46.707Z,33.60
2018-07-31T10:36:46.455Z,33.70
2018-07-31T10:39:16.510Z,33.70
2018-07-31T10:41:46.519Z,33.70
2018-07-31T10:44:16.559Z,33.70
2018-07-31T10:46:47.403Z,33.70
2018-07-31T10:49:17.407Z,33.80
2018-07-31T10:54:17.255Z,34.00
2018-07-31T10:56:47.340Z,34.10
2018-07-31T11:01:47.047Z,34.50
2018-07-31T11:04:17.158Z,34.50
2018-07-31T11:06:47.099Z,34.30
2018-07-31T11:09:17.095Z,34.40
2018-07-31T11:11:47.193Z,34.40
2018-07-31T11:16:46.934Z,34.90
2018-07-31T11:19:16.927Z,34.90
2018-07-31T11:21:46.952Z,35.00
2018-07-31T11:24:17.011Z,35.00
2018-07-31T11:26:47.031Z,35.00
2018-07-31T11:29:17.025Z,35.10
2018-07-31T11:31:47.039Z,35.20
2018-07-31T11:34:17.149Z,35.20
2018-07-31T11:36:47.250Z,35.00
2018-07-31T11:39:17.258Z,35.00
2018-07-31T11:41:47.302Z,34.90
2018-07-31T11:44:17.306Z,35.00
2018-07-31T11:46:47.354Z,35.10
2018-07-31T11:49:17.349Z,35.20
2018-07-31T11:54:17.021Z,35.70
2018-07-31T11:56:47.022Z,35.80
2018-07-31T11:59:17.014Z,35.90
2018-07-31T12:01:47.126Z,35.90
2018-07-31T12:04:17.162Z,35.90
2018-07-31T12:06:47.105Z,35.80
2018-07-31T12:09:17.151Z,35.70
2018-07-31T12:11:47.161Z,35.90
2018-07-31T12:14:17.169Z,35.90
2018-07-31T12:16:47.270Z,35.90
2018-07-31T12:19:17.244Z,36.00
2018-07-31T12:21:47.279Z,36.10
2018-07-31T12:24:17.286Z,36.30
2018-07-31T12:26:47.306Z,36.50
2018-07-31T12:29:17.326Z,36.40
2018-07-31T12:31:47.334Z,35.80
2018-07-31T12:34:17.342Z,35.70
2018-07-31T12:36:49.286Z,35.90
2018-07-31T12:39:19.317Z,35.60
2018-07-31T12:41:49.316Z,35.30
2018-07-31T12:44:19.302Z,35.30
2018-07-31T12:46:49.330Z,34.90
2018-07-31T12:49:19.377Z,35.00
2018-07-31T12:51:49.370Z,35.30
2018-07-31T12:54:19.425Z,35.70
2018-07-31T12:56:49.469Z,36.10
2018-07-31T12:59:19.474Z,36.50
2018-07-31T13:01:49.490Z,36.70
2018-07-31T13:04:19.490Z,36.40
2018-07-31T13:06:49.596Z,36.70
2018-07-31T13:09:19.579Z,36.80
2018-07-31T13:11:49.574Z,36.90
2018-07-31T13:14:19.557Z,37.20
2018-07-31T13:16:49.588Z,37.20
2018-07-31T13:19:19.576Z,37.30
2018-07-31T13:21:49.694Z,37.30
2018-07-31T13:24:19.711Z,37.30
2018-07-31T13:26:49.714Z,37.30
2018-07-31T13:29:19.711Z,37.30
2018-07-31T13:31:49.739Z,36.90
2018-07-31T13:34:19.739Z,36.40
2018-07-31T13:36:49.759Z,35.90
2018-07-31T13:39:19.747Z,35.60
2018-07-31T13:41:49.819Z,35.20
2018-07-31T13:44:19.803Z,35.10
2018-07-31T13:46:49.834Z,34.90
2018-07-31T13:49:19.889Z,34.60
2018-07-31T13:51:49.826Z,34.50
2018-07-31T13:54:19.835Z,34.60
2018-07-31T13:56:49.886Z,34.90
2018-07-31T13:59:19.894Z,35.00
2018-07-31T14:01:49.931Z,35.10
2018-07-31T14:04:19.949Z,35.20
2018-07-31T14:06:49.950Z,35.40
2018-07-31T14:09:19.950Z,36.10
2018-07-31T14:11:49.959Z,36.20
2018-07-31T14:14:19.954Z,36.30
2018-07-31T14:16:50.166Z,36.40
2018-07-31T14:19:20.154Z,36.70
2018-07-31T14:21:50.156Z,37.30
2018-07-31T14:24:20.181Z,37.20
2018-07-31T14:26:50.190Z,37.30
2018-07-31T14:29:20.234Z,37.30
2018-07-31T14:31:50.326Z,37.30
2018-07-31T14:36:50.112Z,36.80
2018-07-31T14:39:20.131Z,36.70
2018-07-31T14:41:50.305Z,36.20
2018-07-31T14:44:20.326Z,35.70
2018-07-31T14:46:50.310Z,35.50
2018-07-31T14:49:20.315Z,35.30
2018-07-31T14:51:50.326Z,35.70
2018-07-31T14:54:20.343Z,36.20
2018-07-31T14:56:50.323Z,36.60
2018-07-31T14:59:20.346Z,36.60
2018-07-31T15:01:50.326Z,36.40
2018-07-31T15:04:20.330Z,36.40
2018-07-31T15:06:50.322Z,36.10
2018-07-31T15:09:20.326Z,35.90
2018-07-31T15:11:50.314Z,35.90
2018-07-31T15:14:20.400Z,36.00
2018-07-31T15:16:50.386Z,36.40
2018-07-31T15:19:20.402Z,36.40
2018-07-31T15:21:50.395Z,36.20
2018-07-31T15:24:20.431Z,36.00
2018-07-31T15:26:50.498Z,35.90
2018-07-31T15:29:20.519Z,35.90
2018-07-31T15:31:50.521Z,35.70
2018-07-31T15:34:20.593Z,35.70
2018-07-31T15:36:50.662Z,35.80
2018-07-31T15:39:20.687Z,36.20
2018-07-31T15:41:50.711Z,36.30
2018-07-31T15:44:20.730Z,36.30
2018-07-31T15:46:50.718Z,36.30
2018-07-31T15:49:20.758Z,36.30
2018-07-31T15:51:50.772Z,36.30
2018-07-31T15:54:20.785Z,36.40
2018-07-31T15:56:50.788Z,36.60
2018-07-31T15:59:20.814Z,36.60
2018-07-31T16:01:50.818Z,36.70
2018-07-31T16:04:20.843Z,36.80
2018-07-31T16:06:50.827Z,36.80
2018-07-31T16:09:20.823Z,36.80
2018-07-31T16:11:50.825Z,36.60
2018-07-31T16:14:20.838Z,36.50
2018-07-31T16:16:50.827Z,36.50
2018-07-31T16:19:20.875Z,36.60
2018-07-31T16:21:50.890Z,36.50
2018-07-31T16:24:20.902Z,36.40
2018-07-31T16:26:50.878Z,36.40
2018-07-31T16:29:20.942Z,36.40
2018-07-31T16:31:50.925Z,36.30
2018-07-31T16:34:20.948Z,36.20
2018-07-31T16:36:50.964Z,36.30
2018-07-31T16:39:20.974Z,36.20
2018-07-31T16:41:50.976Z,36.10
2018-07-31T16:44:20.999Z,36.10
2018-07-31T16:46:51.002Z,36.20
2018-07-31T16:49:21.129Z,36.40
2018-07-31T16:51:51.207Z,36.50
2018-07-31T16:54:21.207Z,36.70
2018-07-31T16:56:51.249Z,36.70
2018-07-31T16:59:21.203Z,36.20
2018-07-31T17:01:51.182Z,35.30
2018-07-31T17:04:21.215Z,34.90
2018-07-31T17:06:51.198Z,34.80
2018-07-31T17:09:21.433Z,34.70
2018-07-31T17:11:51.413Z,34.60
2018-07-31T17:14:21.419Z,34.20
2018-07-31T17:19:21.079Z,33.80
2018-07-31T17:21:51.059Z,33.50
2018-07-31T17:24:21.109Z,33.30
2018-07-31T17:26:51.124Z,33.00
2018-07-31T17:29:21.126Z,32.90
2018-07-31T17:31:51.114Z,32.70
2018-07-31T17:34:21.339Z,32.70
2018-07-31T17:36:51.306Z,32.50
2018-07-31T17:39:21.395Z,32.30
2018-07-31T17:41:51.374Z,32.20
2018-07-31T17:44:21.483Z,31.90
2018-07-31T17:46:51.451Z,31.60
2018-07-31T17:49:21.966Z,31.40
2018-07-31T17:51:51.958Z,31.20
2018-07-31T17:54:21.973Z,30.90
2018-07-31T17:56:51.983Z,30.80
2018-07-31T17:59:22.026Z,30.60
2018-07-31T18:01:52.058Z,30.30
2018-07-31T18:04:22.062Z,30.10
2018-07-31T18:06:52.074Z,29.90
2018-07-31T18:09:22.134Z,29.70
2018-07-31T18:11:52.162Z,29.60
2018-07-31T18:14:22.409Z,29.40
2018-07-31T18:16:52.229Z,29.20
2018-07-31T18:19:22.250Z,29.00
2018-07-31T18:21:52.258Z,28.80
2018-07-31T18:24:22.363Z,28.70
2018-07-31T18:26:52.388Z,28.40
2018-07-31T18:29:22.422Z,28.20
2018-07-31T18:31:52.412Z,28.20
2018-07-31T18:34:22.436Z,27.90
2018-07-31T18:36:52.471Z,27.80
2018-07-31T18:39:22.534Z,27.60
2018-07-31T18:41:52.548Z,27.50
2018-07-31T18:46:52.242Z,27.10
2018-07-31T18:51:51.898Z,26.80
2018-07-31T18:54:21.893Z,26.70
2018-07-31T18:56:51.936Z,26.60
2018-07-31T18:59:22.047Z,26.40
2018-07-31T19:01:52.586Z,26.30
2018-07-31T19:04:22.587Z,26.20
2018-07-31T19:06:53.063Z,26.10
2018-07-31T19:09:23.178Z,26.00
2018-07-31T19:11:53.199Z,25.90
2018-07-31T19:14:23.258Z,25.80
2018-07-31T19:16:53.274Z,25.70
2018-07-31T19:21:53.015Z,25.60
2018-07-31T19:24:23.056Z,25.50
2018-07-31T19:26:53.135Z,25.40
2018-07-31T19:29:23.183Z,25.40
2018-07-31T19:31:53.182Z,25.30
2018-07-31T19:34:23.222Z,25.20
2018-07-31T19:39:22.864Z,25.20
2018-07-31T19:41:52.992Z,25.10
2018-07-31T19:44:22.955Z,25.00
2018-07-31T19:46:52.934Z,25.00
2018-07-31T19:49:22.953Z,25.00
2018-07-31T19:51:52.934Z,24.90
2018-07-31T19:54:22.934Z,24.80
2018-07-31T19:56:52.921Z,24.80
2018-07-31T19:59:22.949Z,24.80
2018-07-31T20:01:53.087Z,24.70
2018-07-31T20:04:23.369Z,24.60
2018-07-31T20:06:53.403Z,24.60
2018-07-31T20:09:28.808Z,24.50
2018-07-31T20:12:01.163Z,24.60
2018-07-31T20:14:33.077Z,24.50
2018-07-31T20:17:04.040Z,24.40
2018-07-31T20:19:34.909Z,24.30
2018-07-31T20:22:05.625Z,24.30
2018-07-31T20:24:36.541Z,24.30
2018-07-31T20:27:07.258Z,24.20
2018-07-31T20:29:38.270Z,24.30
2018-07-31T20:32:09.208Z,24.30
2018-07-31T20:34:39.883Z,24.30
2018-07-31T20:37:10.274Z,24.30
2018-07-31T20:39:41.405Z,24.40
2018-07-31T20:42:11.702Z,24.40
2018-07-31T20:49:42.082Z,24.30
2018-07-31T20:52:12.326Z,24.30
2018-07-31T20:54:42.523Z,24.20
2018-07-31T20:57:12.663Z,24.20
2018-07-31T20:59:42.811Z,24.30
2018-07-31T21:02:13.130Z,24.30
2018-07-31T21:04:43.215Z,24.30
2018-07-31T21:14:42.260Z,24.30
2018-07-31T21:17:12.470Z,24.20
2018-07-31T21:19:42.726Z,24.10
2018-07-31T21:22:12.854Z,24.00
2018-07-31T21:24:42.951Z,24.00
2018-07-31T21:27:13.097Z,24.00
2018-07-31T21:29:43.522Z,23.90
2018-07-31T21:32:13.618Z,23.90
2018-07-31T21:34:43.692Z,24.00
2018-07-31T21:37:13.667Z,24.00
2018-07-31T21:39:43.710Z,24.00
2018-07-31T21:42:13.743Z,24.00
2018-07-31T21:47:13.403Z,24.00
2018-07-31T21:49:43.720Z,24.00
2018-07-31T21:52:13.795Z,24.00
2018-07-31T21:54:43.862Z,23.90
2018-07-31T21:57:13.895Z,23.90
2018-07-31T21:59:43.977Z,23.80
2018-07-31T22:04:43.851Z,23.70
2018-07-31T22:07:13.855Z,23.50
2018-07-31T22:09:44.995Z,23.50
2018-07-31T22:12:15.039Z,23.40
2018-07-31T22:14:45.071Z,23.30
2018-07-31T22:17:15.111Z,23.20
2018-07-31T22:19:45.134Z,23.10
2018-07-31T22:22:15.183Z,23.00
2018-07-31T22:27:14.788Z,22.80
2018-07-31T22:29:44.880Z,22.80
2018-07-31T22:32:14.943Z,22.60
2018-07-31T22:37:14.584Z,22.60
2018-07-31T22:39:44.603Z,22.60
2018-07-31T22:42:14.634Z,22.60
2018-07-31T22:44:44.619Z,22.70
2018-07-31T22:47:14.651Z,22.60
2018-07-31T22:49:44.755Z,22.60
2018-07-31T22:52:15.138Z,22.50
2018-07-31T22:54:45.361Z,22.50
2018-07-31T22:57:15.402Z,22.40
2018-07-31T22:59:45.626Z,22.30
2018-07-31T23:04:45.399Z,22.20
2018-07-31T23:07:15.593Z,22.20
2018-07-31T23:09:49.778Z,22.10
2018-07-31T23:14:49.386Z,22.10
2018-07-31T23:17:19.440Z,22.10
2018-07-31T23:19:49.426Z,22.10
2018-07-31T23:22:37.101Z,22.00
2018-07-31T23:25:08.043Z,22.00
2018-07-31T23:27:39.281Z,22.00
2018-07-31T23:30:10.640Z,21.90
2018-07-31T23:32:41.572Z,21.90
2018-07-31T23:35:12.891Z,21.80
2018-07-31T23:37:43.240Z,21.90
2018-07-31T23:40:13.222Z,21.80
2018-07-31T23:42:43.269Z,21.80
2018-07-31T23:45:13.414Z,21.80
2018-07-31T23:47:44.038Z,21.80
2018-07-31T23:50:14.086Z,21.80
2018-07-31T23:52:44.183Z,21.80
2018-07-31T23:55:14.506Z,21.70
2018-07-31T23:57:44.644Z,21.70
